ENAL

Alesund/Vigra

Airport
ICAO code
ENAL
Summary
ICAO Region
EUR
ICAO Territory
Location

Alesund/Vigra,

Elevation
69 ft
Coordinates
62° 33' 45" N , 6° 7' 11" E
KCC
Metar
Observation
ENAL 271520Z 17009KT 140V200 9999 FEW015 BKN066 12/04 Q1007
Station
Alesund / Vigra
Date/Time
2022-11-27 15:20:00
Wind direction
170°
Wind speed
09 kts
Lowest cloud amount
few clouds
Temperature
12°C
Dew point
4°C
Humidity
58%
QNH
1007 hPa
Weather condition
n/a

Description

Airport serving Alesund, Norway.

Climatology

Temperate Marine climate/Oceanic climate (Köppen climate classification Cfb). Moderately cool summer and comparatively warm winter with a temperature range of only 14°C. Prevailing south-westerly winds from the Atlantic Ocean.

Runways

Designator Length Width Surface Rops
7/25 2314 45 ASP Yes/Yes

Airport map

Aerial View

SKYbrary Partners:

Safety knowledge contributed by: